createdAt,value
2019-05-29T00:00:21.158Z,99.90
2019-05-29T00:02:50.560Z,99.90
2019-05-29T00:05:19.881Z,99.90
2019-05-29T00:07:49.247Z,99.90
2019-05-29T00:10:18.665Z,99.90
2019-05-29T00:12:48.102Z,99.90
2019-05-29T00:15:19.118Z,99.90
2019-05-29T00:17:48.493Z,99.90
2019-05-29T00:20:18.672Z,99.90
2019-05-29T00:22:48.103Z,99.90
2019-05-29T00:25:18.772Z,99.90
2019-05-29T00:27:48.351Z,99.90
2019-05-29T00:30:17.851Z,99.90
2019-05-29T00:32:47.349Z,99.90
2019-05-29T00:35:16.691Z,99.90
2019-05-29T00:37:46.091Z,99.90
2019-05-29T00:40:17.132Z,99.90
2019-05-29T00:42:46.821Z,99.90
2019-05-29T00:45:17.707Z,99.90
2019-05-29T00:47:47.192Z,99.90
2019-05-29T00:50:16.919Z,99.90
2019-05-29T00:52:48.809Z,99.90
2019-05-29T00:55:17.376Z,99.90
2019-05-29T00:57:46.723Z,99.90
2019-05-29T01:00:17.487Z,99.90
2019-05-29T01:02:47.441Z,99.90
2019-05-29T01:05:18.072Z,99.90
2019-05-29T01:07:47.649Z,99.90
2019-05-29T01:10:18.811Z,99.90
2019-05-29T01:12:48.423Z,99.90
2019-05-29T01:15:18.097Z,99.90
2019-05-29T01:17:47.495Z,99.90
2019-05-29T01:20:18.184Z,99.90
2019-05-29T01:22:47.555Z,99.90
2019-05-29T01:25:18.681Z,99.90
2019-05-29T01:27:48.256Z,99.90
2019-05-29T01:30:19.347Z,99.90
2019-05-29T01:32:49.016Z,99.90
2019-05-29T01:35:18.347Z,99.90
2019-05-29T01:37:47.714Z,99.90
2019-05-29T01:40:22.157Z,99.90
2019-05-29T01:42:50.112Z,99.90
2019-05-29T01:45:19.448Z,99.90
2019-05-29T01:47:49.938Z,99.90
2019-05-29T01:50:19.621Z,99.90
2019-05-29T01:52:49.126Z,99.90
2019-05-29T01:55:19.639Z,99.90
2019-05-29T01:57:49.286Z,99.90
2019-05-29T02:00:20.059Z,99.90
2019-05-29T02:02:49.799Z,99.90
2019-05-29T02:05:19.994Z,99.90
2019-05-29T02:07:49.547Z,99.90
2019-05-29T02:10:20.247Z,99.90
2019-05-29T02:12:49.856Z,99.90
2019-05-29T02:15:29.173Z,99.90
2019-05-29T02:18:02.567Z,99.90
2019-05-29T02:20:32.005Z,99.90
2019-05-29T02:23:01.464Z,99.90
2019-05-29T02:25:30.866Z,99.90
2019-05-29T02:28:00.197Z,99.90
2019-05-29T02:30:30.891Z,99.90
2019-05-29T02:33:00.468Z,99.90
2019-05-29T02:35:29.851Z,99.90
2019-05-29T02:37:59.239Z,99.90
2019-05-29T02:40:30.279Z,99.90
2019-05-29T02:42:59.648Z,99.90
2019-05-29T02:45:52.141Z,99.90
2019-05-29T02:48:00.120Z,99.90
2019-05-29T02:50:31.229Z,99.90
2019-05-29T02:53:00.568Z,99.90
2019-05-29T02:55:30.937Z,99.90
2019-05-29T02:58:00.565Z,99.90
2019-05-29T03:00:55.699Z,99.90
2019-05-29T03:03:26.830Z,99.90
2019-05-29T03:05:56.813Z,99.90
2019-05-29T03:08:27.161Z,99.90
2019-05-29T03:10:57.232Z,99.90
2019-05-29T03:13:27.618Z,99.90
2019-05-29T03:16:10.662Z,99.90
2019-05-29T03:18:30.190Z,99.90
2019-05-29T03:21:00.043Z,99.90
2019-05-29T03:23:30.740Z,99.90
2019-05-29T03:26:00.481Z,99.90
2019-05-29T03:28:30.136Z,99.90
2019-05-29T03:31:00.204Z,99.90
2019-05-29T03:33:36.015Z,99.90
2019-05-29T03:36:00.711Z,99.90
2019-05-29T03:38:30.357Z,99.90
2019-05-29T03:40:59.876Z,99.90
2019-05-29T03:43:30.860Z,99.90
2019-05-29T03:46:00.351Z,99.90
2019-05-29T03:48:30.044Z,99.90
2019-05-29T03:50:59.587Z,99.90
2019-05-29T03:53:29.302Z,99.90
2019-05-29T03:55:58.819Z,99.90
2019-05-29T03:58:28.911Z,99.90
2019-05-29T04:00:58.845Z,99.90
2019-05-29T04:03:28.965Z,99.90
2019-05-29T04:05:58.724Z,99.90
2019-05-29T04:08:29.483Z,99.90
2019-05-29T04:10:59.359Z,99.90
2019-05-29T04:13:29.631Z,99.90
2019-05-29T04:16:01.089Z,99.90
2019-05-29T04:18:33.942Z,99.90
2019-05-29T04:21:03.833Z,99.90
2019-05-29T04:23:36.212Z,99.90
2019-05-29T04:26:05.847Z,99.90
2019-05-29T04:28:36.855Z,99.90
2019-05-29T04:31:06.328Z,99.90
2019-05-29T04:33:36.817Z,99.90
2019-05-29T04:36:06.859Z,99.90
2019-05-29T04:38:38.475Z,99.90
2019-05-29T04:41:07.331Z,99.90
2019-05-29T04:43:37.579Z,99.90
2019-05-29T04:46:07.708Z,99.90
2019-05-29T04:48:38.248Z,99.90
2019-05-29T04:51:08.083Z,99.90
2019-05-29T04:53:37.833Z,99.90
2019-05-29T04:56:08.464Z,99.90
2019-05-29T04:58:38.983Z,99.90
2019-05-29T05:01:08.510Z,99.90
2019-05-29T05:03:37.864Z,99.90
2019-05-29T05:06:07.219Z,99.90
2019-05-29T05:08:37.520Z,99.90
2019-05-29T05:11:07.814Z,99.90
2019-05-29T05:13:37.718Z,99.90
2019-05-29T05:16:07.179Z,99.90
2019-05-29T05:18:36.521Z,99.90
2019-05-29T05:21:05.902Z,99.90
2019-05-29T05:23:36.150Z,99.90
2019-05-29T05:26:05.593Z,99.90
2019-05-29T05:28:36.374Z,99.90
2019-05-29T05:31:05.948Z,99.90
2019-05-29T05:33:36.630Z,99.90
2019-05-29T05:36:06.181Z,99.40
2019-05-29T05:38:36.700Z,99.70
2019-05-29T05:41:06.264Z,99.90
2019-05-29T05:43:35.592Z,99.90
2019-05-29T05:46:05.224Z,99.10
2019-05-29T05:48:35.141Z,99.90
2019-05-29T05:51:04.672Z,99.40
2019-05-29T05:53:33.999Z,99.90
2019-05-29T05:56:03.370Z,99.00
2019-05-29T05:58:33.796Z,99.00
2019-05-29T06:01:03.299Z,98.50
2019-05-29T06:03:33.859Z,97.60
2019-05-29T06:06:03.422Z,98.30
2019-05-29T06:08:33.973Z,97.90
2019-05-29T06:11:03.511Z,97.80
2019-05-29T06:13:32.823Z,96.80
2019-05-29T06:16:02.156Z,96.70
2019-05-29T06:18:32.360Z,96.80
2019-05-29T06:21:02.021Z,96.00
2019-05-29T06:23:32.697Z,97.20
2019-05-29T06:26:02.192Z,96.20
2019-05-29T06:28:31.522Z,96.40
2019-05-29T06:31:00.876Z,96.30
2019-05-29T06:33:30.279Z,95.60
2019-05-29T06:35:59.640Z,95.80
2019-05-29T06:38:28.977Z,93.80
2019-05-29T06:40:58.326Z,94.80
2019-05-29T06:43:27.823Z,94.50
2019-05-29T06:45:57.546Z,95.10
2019-05-29T06:48:42.740Z,93.90
2019-05-29T06:50:59.688Z,93.90
2019-05-29T06:53:29.095Z,94.10
2019-05-29T06:55:59.450Z,93.80
2019-05-29T06:58:29.489Z,92.60
2019-05-29T07:00:58.915Z,93.50
2019-05-29T07:03:28.280Z,91.50
2019-05-29T07:05:57.670Z,92.50
2019-05-29T07:08:38.131Z,91.60
2019-05-29T07:10:58.092Z,92.00
2019-05-29T07:13:27.486Z,91.20
2019-05-29T07:15:56.841Z,90.90
2019-05-29T07:18:26.266Z,90.70
2019-05-29T07:20:55.664Z,91.30
2019-05-29T07:23:24.987Z,89.30
2019-05-29T07:25:54.446Z,88.30
2019-05-29T07:28:23.810Z,88.90
2019-05-29T07:31:00.588Z,90.50
2019-05-29T07:33:24.204Z,86.00
2019-05-29T07:35:53.641Z,85.80
2019-05-29T07:38:22.967Z,86.10
2019-05-29T07:40:52.344Z,85.40
2019-05-29T07:43:21.662Z,86.10
2019-05-29T07:45:51.125Z,81.40
2019-05-29T07:48:20.523Z,81.70
2019-05-29T07:50:49.843Z,81.40
2019-05-29T07:53:19.174Z,83.90
2019-05-29T07:55:48.990Z,82.60
2019-05-29T07:58:19.659Z,85.60
2019-05-29T08:01:09.257Z,83.70
2019-05-29T08:03:20.344Z,84.30
2019-05-29T08:05:52.720Z,83.90
2019-05-29T08:08:20.707Z,79.50
2019-05-29T08:10:50.036Z,81.30
2019-05-29T08:13:20.455Z,80.40
2019-05-29T08:16:02.047Z,78.70
2019-05-29T08:18:20.986Z,81.40
2019-05-29T08:20:50.392Z,82.80
2019-05-29T08:23:20.864Z,78.80
2019-05-29T08:25:51.766Z,85.80
2019-05-29T08:28:21.305Z,84.90
2019-05-29T08:30:55.761Z,84.00
2019-05-29T08:33:21.766Z,86.90
2019-05-29T08:35:59.319Z,81.20
2019-05-29T08:38:23.998Z,87.00
2019-05-29T08:40:53.355Z,78.90
2019-05-29T08:43:23.224Z,79.70
2019-05-29T08:45:52.787Z,80.70
2019-05-29T08:48:22.274Z,83.40
2019-05-29T08:50:52.018Z,81.30
2019-05-29T08:53:21.502Z,80.70
2019-05-29T08:55:50.856Z,78.50
2019-05-29T08:58:20.243Z,76.40
2019-05-29T09:00:53.152Z,75.20
2019-05-29T09:03:20.693Z,71.90
2019-05-29T09:06:04.941Z,71.70
2019-05-29T09:08:21.146Z,75.30
2019-05-29T09:10:51.871Z,74.20
2019-05-29T09:13:21.489Z,74.00
2019-05-29T09:15:50.935Z,78.10
2019-05-29T09:18:21.480Z,76.80
2019-05-29T09:21:02.703Z,80.90
2019-05-29T09:23:23.302Z,75.40
2019-05-29T09:25:52.807Z,71.70
2019-05-29T09:28:22.219Z,75.50
2019-05-29T09:30:51.796Z,75.10
2019-05-29T09:33:21.999Z,72.90
2019-05-29T09:35:52.511Z,72.10
2019-05-29T09:38:23.051Z,73.40
2019-05-29T09:40:53.816Z,71.50
2019-05-29T09:43:30.054Z,72.80
2019-05-29T09:45:55.976Z,71.50
2019-05-29T09:48:28.564Z,74.70
2019-05-29T09:50:56.500Z,72.40
2019-05-29T09:53:25.919Z,72.70
2019-05-29T09:55:57.839Z,69.60
2019-05-29T09:58:27.132Z,71.70
2019-05-29T10:01:16.172Z,67.60
2019-05-29T10:03:27.711Z,65.90
2019-05-29T10:05:57.558Z,66.80
2019-05-29T10:08:27.176Z,69.80
2019-05-29T10:11:04.734Z,72.50
2019-05-29T10:13:27.562Z,70.30
2019-05-29T10:15:57.716Z,68.40
2019-05-29T10:18:32.280Z,68.60
2019-05-29T10:20:59.737Z,71.70
2019-05-29T10:23:30.069Z,71.80
2019-05-29T10:26:01.694Z,76.30
2019-05-29T10:28:49.335Z,71.10
2019-05-29T10:31:03.682Z,73.40
2019-05-29T10:33:35.568Z,73.80
2019-05-29T10:36:05.736Z,69.50
2019-05-29T10:38:35.220Z,69.60
2019-05-29T10:41:16.507Z,70.70
2019-05-29T10:43:47.064Z,70.10
2019-05-29T10:46:16.613Z,68.90
2019-05-29T10:48:49.301Z,66.90
2019-05-29T10:51:17.080Z,71.20
2019-05-29T10:53:47.682Z,67.60
2019-05-29T10:56:20.989Z,64.00
2019-05-29T10:58:54.414Z,60.30
2019-05-29T11:01:19.871Z,63.20
2019-05-29T11:03:52.380Z,62.20
2019-05-29T11:06:21.408Z,62.00
2019-05-29T11:08:51.948Z,58.30
2019-05-29T11:11:21.532Z,61.40
2019-05-29T11:13:50.855Z,65.20
2019-05-29T11:16:25.527Z,61.60
2019-05-29T11:18:55.341Z,64.10
2019-05-29T11:21:24.822Z,60.00
2019-05-29T11:23:54.189Z,59.10
2019-05-29T11:26:23.619Z,58.60
2019-05-29T11:28:54.353Z,59.20
2019-05-29T11:31:23.886Z,60.60
2019-05-29T11:33:53.312Z,63.00
2019-05-29T11:36:22.740Z,62.50
2019-05-29T11:38:52.575Z,61.70
2019-05-29T11:41:26.214Z,64.50
2019-05-29T11:43:53.082Z,65.90
2019-05-29T11:46:22.415Z,63.30
2019-05-29T11:48:52.999Z,62.60
2019-05-29T11:51:22.579Z,58.80
2019-05-29T11:53:53.490Z,55.60
2019-05-29T11:56:22.980Z,53.20
2019-05-29T11:58:52.733Z,57.00
2019-05-29T12:01:50.101Z,60.00
2019-05-29T12:04:25.754Z,59.70
2019-05-29T12:06:43.690Z,57.90
2019-05-29T12:09:13.109Z,55.80
2019-05-29T12:11:42.565Z,56.80
2019-05-29T12:14:11.959Z,56.50
2019-05-29T12:16:41.283Z,55.90
2019-05-29T12:19:10.644Z,53.70
2019-05-29T12:21:42.736Z,53.20
2019-05-29T12:24:11.096Z,56.80
2019-05-29T12:26:40.520Z,52.70
2019-05-29T12:29:11.816Z,52.50
2019-05-29T12:31:42.083Z,54.00
2019-05-29T12:34:18.703Z,56.00
2019-05-29T12:36:42.596Z,54.40
2019-05-29T12:39:12.047Z,54.20
2019-05-29T12:41:41.471Z,53.30
2019-05-29T12:44:10.870Z,56.50
2019-05-29T12:46:40.235Z,52.00
2019-05-29T12:49:10.403Z,52.60
2019-05-29T12:51:39.737Z,55.10
2019-05-29T12:54:09.135Z,51.80
2019-05-29T12:56:38.465Z,49.30
2019-05-29T12:59:07.817Z,48.20
2019-05-29T13:01:37.256Z,52.10
2019-05-29T13:04:06.801Z,49.80
2019-05-29T13:06:36.261Z,51.90
2019-05-29T13:09:08.032Z,50.30
2019-05-29T13:11:36.659Z,48.70
2019-05-29T13:14:05.910Z,49.70
2019-05-29T13:16:35.235Z,49.20
2019-05-29T13:19:05.351Z,48.80
2019-05-29T13:21:34.928Z,50.60
2019-05-29T13:24:10.753Z,49.20
2019-05-29T13:26:35.483Z,48.50
2019-05-29T13:29:06.043Z,50.20
2019-05-29T13:31:35.616Z,46.60
2019-05-29T13:34:05.003Z,44.00
2019-05-29T13:36:34.370Z,44.00
2019-05-29T13:39:06.329Z,44.70
2019-05-29T13:41:35.871Z,44.40
2019-05-29T13:44:06.800Z,43.50
2019-05-29T13:46:36.518Z,44.90
2019-05-29T13:49:07.013Z,41.20
2019-05-29T13:51:36.713Z,41.60
2019-05-29T13:54:13.212Z,43.40
2019-05-29T13:56:37.134Z,43.90
2019-05-29T13:59:06.731Z,42.40
2019-05-29T14:01:36.580Z,43.60
2019-05-29T14:04:06.965Z,43.90
2019-05-29T14:06:36.395Z,46.20
2019-05-29T14:09:09.512Z,44.50
2019-05-29T14:11:39.053Z,41.80
2019-05-29T14:14:11.795Z,39.20
2019-05-29T14:16:40.538Z,39.20
2019-05-29T14:19:09.979Z,36.80
2019-05-29T14:21:39.373Z,35.50
2019-05-29T14:24:26.312Z,35.60
2019-05-29T14:26:39.788Z,36.80
2019-05-29T14:29:10.085Z,36.70
2019-05-29T14:31:39.638Z,38.30
2019-05-29T14:34:09.448Z,35.70
2019-05-29T14:36:40.136Z,36.10
2019-05-29T14:39:10.055Z,36.70
2019-05-29T14:41:39.566Z,34.60
2019-05-29T14:44:10.006Z,33.40
2019-05-29T14:46:39.494Z,35.10
2019-05-29T14:49:08.821Z,33.50
2019-05-29T14:51:39.140Z,35.30
2019-05-29T14:54:08.892Z,31.30
2019-05-29T14:56:38.474Z,35.20
2019-05-29T14:59:09.283Z,33.30
2019-05-29T15:01:38.948Z,32.80
2019-05-29T15:04:09.483Z,36.30
2019-05-29T15:06:38.980Z,40.80
2019-05-29T15:09:09.445Z,40.70
2019-05-29T15:11:39.010Z,40.50
2019-05-29T15:14:08.329Z,41.20
2019-05-29T15:16:37.684Z,39.30
2019-05-29T15:19:07.118Z,42.40
2019-05-29T15:21:36.589Z,42.70
2019-05-29T15:24:07.292Z,43.40
2019-05-29T15:26:36.804Z,43.80
2019-05-29T15:29:08.018Z,44.10
2019-05-29T15:31:38.655Z,39.60
2019-05-29T15:34:08.192Z,34.60
2019-05-29T15:36:37.719Z,32.30
2019-05-29T15:39:10.638Z,30.90
2019-05-29T15:41:40.241Z,30.10
2019-05-29T15:44:10.839Z,30.00
2019-05-29T15:46:40.327Z,30.30
2019-05-29T15:49:10.986Z,31.00
2019-05-29T15:51:40.628Z,29.80
2019-05-29T15:54:11.196Z,31.70
2019-05-29T15:56:41.739Z,31.00
2019-05-29T15:59:12.113Z,35.60
2019-05-29T16:01:42.087Z,37.50
2019-05-29T16:04:11.734Z,41.00
2019-05-29T16:07:00.535Z,39.50
2019-05-29T16:09:29.968Z,36.10
2019-05-29T16:11:59.358Z,33.30
2019-05-29T16:14:28.715Z,33.40
2019-05-29T16:16:58.119Z,33.50
2019-05-29T16:19:27.486Z,37.10
2019-05-29T16:21:56.989Z,36.30
2019-05-29T16:24:26.323Z,33.10
2019-05-29T16:27:07.973Z,32.60
2019-05-29T16:29:27.179Z,31.30
2019-05-29T16:31:56.800Z,33.30
2019-05-29T16:34:26.288Z,34.40
2019-05-29T16:36:55.607Z,34.50
2019-05-29T16:39:25.034Z,34.70
2019-05-29T16:41:54.388Z,33.20
2019-05-29T16:44:27.548Z,32.00
2019-05-29T16:46:54.771Z,31.60
2019-05-29T16:49:24.210Z,32.70
2019-05-29T16:51:53.667Z,34.70
2019-05-29T16:54:23.291Z,33.00
2019-05-29T16:56:52.762Z,33.90
2019-05-29T16:59:25.363Z,32.90
2019-05-29T17:01:52.935Z,32.00
2019-05-29T17:04:22.207Z,33.00
2019-05-29T17:06:51.553Z,33.80
2019-05-29T17:09:22.236Z,34.60
2019-05-29T17:11:51.755Z,35.20
2019-05-29T17:14:22.840Z,35.60
2019-05-29T17:16:53.426Z,37.30
2019-05-29T17:19:23.120Z,36.20
2019-05-29T17:21:52.580Z,36.60
2019-05-29T17:24:22.971Z,36.40
2019-05-29T17:26:52.537Z,37.00
2019-05-29T17:29:22.881Z,36.40
2019-05-29T17:31:52.395Z,35.30
2019-05-29T17:34:23.091Z,36.00
2019-05-29T17:36:52.731Z,35.90
2019-05-29T17:39:23.077Z,36.80
2019-05-29T17:41:52.486Z,36.80
2019-05-29T17:44:21.822Z,39.80
2019-05-29T17:46:51.198Z,39.90
2019-05-29T17:49:24.886Z,41.00
2019-05-29T17:51:51.676Z,42.30
2019-05-29T17:54:21.789Z,42.40
2019-05-29T17:56:51.407Z,43.70
2019-05-29T17:59:22.025Z,44.80
2019-05-29T18:01:51.572Z,47.80
2019-05-29T18:04:22.467Z,45.50
2019-05-29T18:06:56.321Z,44.50
2019-05-29T18:09:27.356Z,46.20
2019-05-29T18:11:55.271Z,46.30
2019-05-29T18:14:25.377Z,48.20
2019-05-29T18:16:54.827Z,46.30
2019-05-29T18:19:24.248Z,48.50
2019-05-29T18:21:53.697Z,48.40
2019-05-29T18:24:23.809Z,51.70
2019-05-29T18:26:53.363Z,53.00
2019-05-29T18:29:22.679Z,50.80
2019-05-29T18:31:52.003Z,52.60
2019-05-29T18:34:22.619Z,54.80
2019-05-29T18:36:52.261Z,54.80
2019-05-29T18:39:22.775Z,55.00
2019-05-29T18:41:52.195Z,57.70
2019-05-29T18:44:22.716Z,55.40
2019-05-29T18:46:52.259Z,56.90
2019-05-29T18:49:22.229Z,58.90
2019-05-29T18:51:51.791Z,59.00
2019-05-29T18:54:21.631Z,55.60
2019-05-29T18:57:13.667Z,60.00
2019-05-29T18:59:23.225Z,56.00
2019-05-29T19:01:52.688Z,56.90
2019-05-29T19:04:23.338Z,57.20
2019-05-29T19:06:52.852Z,61.00
2019-05-29T19:09:23.524Z,62.80
2019-05-29T19:11:53.179Z,63.80
2019-05-29T19:14:23.924Z,64.00
2019-05-29T19:16:53.532Z,60.60
2019-05-29T19:19:24.023Z,63.80
2019-05-29T19:21:53.545Z,63.90
2019-05-29T19:24:22.897Z,64.50
2019-05-29T19:26:52.331Z,63.50
2019-05-29T19:29:22.971Z,64.30
2019-05-29T19:31:52.735Z,68.90
2019-05-29T19:34:23.162Z,66.30
2019-05-29T19:36:52.697Z,67.60
2019-05-29T19:39:22.099Z,67.40
2019-05-29T19:41:51.451Z,65.60
2019-05-29T19:44:20.854Z,69.00
2019-05-29T19:46:54.036Z,71.00
2019-05-29T19:49:21.258Z,69.70
2019-05-29T19:51:50.575Z,71.90
2019-05-29T19:54:19.937Z,70.30
2019-05-29T19:56:49.364Z,71.20
2019-05-29T19:59:18.762Z,72.30
2019-05-29T20:01:48.502Z,76.50
2019-05-29T20:04:17.900Z,75.70
2019-05-29T20:06:47.218Z,77.20
2019-05-29T20:09:16.580Z,78.40
2019-05-29T20:11:45.914Z,78.60
2019-05-29T20:14:15.515Z,81.00
2019-05-29T20:16:44.855Z,83.00
2019-05-29T20:19:14.216Z,86.50
2019-05-29T20:21:43.655Z,86.90
2019-05-29T20:24:13.048Z,87.50
2019-05-29T20:26:42.415Z,88.70
2019-05-29T20:29:11.803Z,88.70
2019-05-29T20:31:41.140Z,90.50
2019-05-29T20:34:10.487Z,90.20
2019-05-29T20:36:40.122Z,90.10
2019-05-29T20:39:10.526Z,89.20
2019-05-29T20:41:42.114Z,88.60
2019-05-29T20:44:10.932Z,89.40
2019-05-29T20:46:52.849Z,90.60
2019-05-29T20:49:22.175Z,90.30
2019-05-29T20:51:51.559Z,91.30
2019-05-29T20:54:20.947Z,90.80
2019-05-29T20:56:50.375Z,91.80
2019-05-29T20:59:19.736Z,91.40
2019-05-29T21:01:49.156Z,91.80
2019-05-29T21:04:18.533Z,91.50
2019-05-29T21:06:47.913Z,92.10
2019-05-29T21:09:17.244Z,92.30
2019-05-29T21:11:46.560Z,92.60
2019-05-29T21:14:15.930Z,92.90
2019-05-29T21:16:45.335Z,93.00
2019-05-29T21:19:14.759Z,93.00
2019-05-29T21:21:44.634Z,92.50
2019-05-29T21:24:14.130Z,92.80
2019-05-29T21:26:43.560Z,92.30
2019-05-29T21:29:12.914Z,91.40
2019-05-29T21:31:43.698Z,90.60
2019-05-29T21:34:13.207Z,92.50
2019-05-29T21:36:42.569Z,91.70
2019-05-29T21:39:12.011Z,91.90
2019-05-29T21:41:42.471Z,91.10
2019-05-29T21:44:12.075Z,91.10
2019-05-29T21:46:41.467Z,91.20
2019-05-29T21:49:10.786Z,91.60
2019-05-29T21:51:40.114Z,91.10
2019-05-29T21:54:09.446Z,90.90
2019-05-29T21:56:39.483Z,92.40
2019-05-29T21:59:08.990Z,92.10
2019-05-29T22:01:38.322Z,92.70
2019-05-29T22:04:07.640Z,92.60
2019-05-29T22:06:38.391Z,93.90
2019-05-29T22:09:11.083Z,95.70
2019-05-29T22:11:40.432Z,95.20
2019-05-29T22:14:09.937Z,95.00
2019-05-29T22:16:39.436Z,95.30
2019-05-29T22:19:08.787Z,95.20
2019-05-29T22:21:38.239Z,95.20
2019-05-29T22:24:07.579Z,95.60
2019-05-29T22:26:36.927Z,95.00
2019-05-29T22:29:17.748Z,95.70
2019-05-29T22:31:37.409Z,96.90
2019-05-29T22:34:06.834Z,96.40
2019-05-29T22:36:36.252Z,96.10
2019-05-29T22:39:06.919Z,95.50
2019-05-29T22:41:36.403Z,96.60
2019-05-29T22:44:06.707Z,97.30
2019-05-29T22:46:36.051Z,96.30
2019-05-29T22:49:05.380Z,96.20
2019-05-29T22:51:34.706Z,96.30
2019-05-29T22:54:04.135Z,96.20
2019-05-29T22:56:33.559Z,96.30
2019-05-29T22:59:02.882Z,96.70
2019-05-29T23:01:32.227Z,98.50
2019-05-29T23:04:02.564Z,98.40
2019-05-29T23:06:32.031Z,98.00
2019-05-29T23:09:02.574Z,97.80
2019-05-29T23:11:32.372Z,97.60
2019-05-29T23:14:02.529Z,97.20
2019-05-29T23:16:32.039Z,97.00
2019-05-29T23:19:02.663Z,96.70
2019-05-29T23:21:32.255Z,97.70
2019-05-29T23:24:01.815Z,98.80
2019-05-29T23:26:31.299Z,99.90
2019-05-29T23:29:02.289Z,99.90
2019-05-29T23:31:32.698Z,99.30
2019-05-29T23:34:03.172Z,98.50
2019-05-29T23:36:32.759Z,97.10
2019-05-29T23:39:03.388Z,96.80
2019-05-29T23:41:32.915Z,96.30
2019-05-29T23:44:03.676Z,96.60
2019-05-29T23:46:33.176Z,96.30
2019-05-29T23:49:03.849Z,96.60
2019-05-29T23:51:33.283Z,96.00
2019-05-29T23:54:03.857Z,96.40
2019-05-29T23:56:33.406Z,96.00
2019-05-29T23:59:04.000Z,96.80
